Time;durP1;ratioP1;P1;durP2;ratioP2;P2;SDS_P1;SDS_P2;PMS_P1;PMS_P2;Temp;Humidity;BMP_temperature;BMP_pressure;BME280_temperature;BME280_humidity;BME280_pressure;Samples;Min_cycle;Max_cycle;Signal;HPM_P1;HPM_P2
2023/06/03 00:02:05;;;;;;;5.30;0.60;;;;;;;14.26;100.00;99376.61;105358;1254;66066;-48
2023/06/03 00:04:32;;;;;;;3.70;0.70;;;;;;;14.21;100.00;99382.02;105340;1259;71641;-46
2023/06/03 00:07:00;;;;;;;1.20;0.50;;;;;;;14.16;100.00;99381.13;109020;1254;60723;-46
2023/06/03 00:09:27;;;;;;;8.50;1.00;;;;;;;14.12;100.00;99399.64;109118;1254;60750;-46
2023/06/03 00:11:55;;;;;;;7.30;0.90;;;;;;;14.06;100.00;99407.26;109019;1254;72058;-46
2023/06/03 00:14:22;;;;;;;1.50;0.60;;;;;;;13.99;100.00;99403.88;109111;1254;69477;-46
2023/06/03 00:16:50;;;;;;;6.20;0.60;;;;;;;13.95;100.00;99406.14;109041;1254;71854;-47
2023/06/03 00:19:18;;;;;;;4.80;0.60;;;;;;;13.92;100.00;99410.88;108991;1253;60861;-46
2023/06/03 00:21:46;;;;;;;8.60;0.80;;;;;;;13.83;100.00;99404.30;107200;1256;58993;-47
2023/06/03 00:24:14;;;;;;;4.70;0.60;;;;;;;13.72;100.00;99404.29;105406;1254;74149;-47
2023/06/03 00:26:41;;;;;;;2.90;0.60;;;;;;;13.60;100.00;99408.00;105411;1254;66634;-47
2023/06/03 00:29:09;;;;;;;2.00;0.50;;;;;;;13.54;100.00;99410.77;105387;1254;73167;-46
2023/06/03 00:31:36;;;;;;;5.60;0.60;;;;;;;13.47;100.00;99406.66;105286;1261;62871;-48
2023/06/03 00:34:04;;;;;;;1.70;0.70;;;;;;;13.40;100.00;99406.44;108939;1259;60007;-45
2023/06/03 00:36:31;;;;;;;5.90;0.50;;;;;;;13.35;100.00;99406.79;109033;1254;72713;-46
2023/06/03 00:38:58;;;;;;;2.00;0.40;;;;;;;13.29;100.00;99412.52;106659;1254;67793;-47
2023/06/03 00:41:26;;;;;;;5.40;0.50;;;;;;;13.23;100.00;99419.94;105313;1260;71398;-46
2023/06/03 00:43:53;;;;;;;2.30;0.50;;;;;;;13.15;100.00;99417.23;105439;1257;60409;-47
2023/06/03 00:46:21;;;;;;;3.10;0.50;;;;;;;13.09;100.00;99417.24;105402;1260;60567;-46
2023/06/03 00:48:50;;;;;;;4.60;0.50;;;;;;;13.06;100.00;99423.20;105326;1254;73667;-47
2023/06/03 00:51:18;;;;;;;2.90;0.70;;;;;;;13.04;100.00;99425.34;105831;1258;66617;-47
2023/06/03 00:53:45;;;;;;;3.10;0.60;;;;;;;13.01;100.00;99436.11;105016;1258;71811;-47
2023/06/03 00:56:15;;;;;;;5.50;0.60;;;;;;;13.00;100.00;99441.09;105214;1257;60623;-46
2023/06/03 00:58:42;;;;;;;1.00;0.60;;;;;;;13.00;100.00;99439.27;105443;1254;60475;-47
2023/06/03 01:01:12;;;;;;;0.90;0.40;;;;;;;13.00;100.00;99446.45;105427;1255;74061;-45
2023/06/03 01:03:43;;;;;;;1.10;0.50;;;;;;;13.00;100.00;99455.48;105680;1254;67036;-46
2023/06/03 01:06:18;;;;;;;1.30;0.40;;;;;;;12.99;100.00;99464.38;106016;1254;72440;-46
2023/06/03 01:08:50;;;;;;;;;;;;;;;12.97;100.00;99467.36;105282;1255;64035;-43
2023/06/03 01:11:38;;;;;;;1.40;0.40;;;;;;;12.96;100.00;99474.97;105846;1254;61760;-46
2023/06/03 01:14:11;;;;;;;3.40;0.40;;;;;;;12.93;100.00;99485.23;105386;1260;74056;-44
2023/06/03 01:16:41;;;;;;;2.50;0.50;;;;;;;12.88;100.00;99491.12;105333;1254;68332;-45
2023/06/03 01:19:17;;;;;;;1.80;0.40;;;;;;;12.83;100.00;99500.64;105634;1254;73456;-46
2023/06/03 01:21:45;;;;;;;0.70;0.40;;;;;;;12.84;100.00;99504.38;105427;1256;61565;-46
2023/06/03 01:24:19;;;;;;;1.20;0.50;;;;;;;12.86;100.00;99508.74;105237;1254;61900;-43
2023/06/03 01:26:47;;;;;;;;;;;;;;;12.86;100.00;99508.01;105924;1254;76106;-47
2023/06/03 01:29:14;;;;;;;3.30;0.50;;;;;;;12.87;100.00;99512.61;105550;1254;67093;-44
2023/06/03 01:31:42;;;;;;;5.40;0.60;;;;;;;12.87;100.00;99519.48;105429;1258;72112;-45
2023/06/03 01:34:09;;;;;;;2.20;0.50;;;;;;;12.87;100.00;99528.63;105653;1261;60540;-47
2023/06/03 01:36:39;;;;;;;1.00;0.40;;;;;;;12.88;100.00;99531.98;106104;1254;60453;-44
2023/06/03 01:39:06;;;;;;;0.90;0.40;;;;;;;12.85;100.00;99527.33;105467;1254;73118;-44
2023/06/03 01:41:34;;;;;;;2.80;0.50;;;;;;;12.78;100.00;99526.52;105377;1254;67929;-47
2023/06/03 01:44:01;;;;;;;0.90;0.50;;;;;;;12.73;100.00;99531.52;105417;1260;70621;-45
2023/06/03 01:46:28;;;;;;;6.00;0.50;;;;;;;12.67;100.00;99534.20;105369;1254;61583;-46
2023/06/03 01:48:56;;;;;;;3.10;0.50;;;;;;;12.60;100.00;99540.74;105992;1254;60653;-46
2023/06/03 01:51:27;;;;;;;4.20;0.60;;;;;;;12.55;100.00;99549.02;105528;1254;72938;-47
2023/06/03 01:53:55;;;;;;;1.50;0.60;;;;;;;12.48;100.00;99545.77;105445;1260;66490;-46
2023/06/03 01:56:23;;;;;;;6.20;1.10;;;;;;;12.43;100.00;99551.65;105460;1254;73103;-46
2023/06/03 01:58:50;;;;;;;1.60;0.50;;;;;;;12.39;100.00;99547.05;105362;1254;60490;-45
2023/06/03 02:01:17;;;;;;;0.80;0.50;;;;;;;12.33;100.00;99552.65;105237;1260;60657;-45
2023/06/03 02:03:46;;;;;;;2.60;0.60;;;;;;;12.28;100.00;99554.91;105546;1254;73770;-46
2023/06/03 02:06:13;;;;;;;1.20;0.70;;;;;;;12.26;100.00;99555.02;105433;1258;68043;-46
2023/06/03 02:08:41;;;;;;;4.40;0.40;;;;;;;12.26;100.00;99558.81;105382;1259;73128;-45
2023/06/03 02:11:08;;;;;;;3.70;0.80;;;;;;;12.28;100.00;99563.56;106167;1254;61817;-45
2023/06/03 02:13:35;;;;;;;1.40;0.50;;;;;;;12.28;100.00;99568.21;105403;1254;60642;-47
2023/06/03 02:16:03;;;;;;;0.60;0.40;;;;;;;12.27;100.00;99584.65;105401;1260;73266;-45
2023/06/03 02:18:31;;;;;;;1.00;0.60;;;;;;;12.26;100.00;99596.08;105386;1254;67818;-46
2023/06/03 02:21:00;;;;;;;2.00;0.70;;;;;;;12.24;100.00;99604.09;105586;1254;72731;-47
2023/06/03 02:23:28;;;;;;;4.40;0.50;;;;;;;12.19;100.00;99605.11;105453;1254;61002;-47
2023/06/03 02:25:56;;;;;;;4.30;0.50;;;;;;;12.12;100.00;99611.94;105834;1254;60283;-47
2023/06/03 02:28:24;;;;;;;3.20;0.50;;;;;;;12.04;100.00;99614.54;105305;1256;74703;-47
2023/06/03 02:30:51;;;;;;;2.40;0.50;;;;;;;12.01;100.00;99626.59;105853;1254;67497;-45
2023/06/03 02:33:19;;;;;;;3.80;0.50;;;;;;;12.00;100.00;99633.50;105310;1258;71353;-45
2023/06/03 02:35:46;;;;;;;1.70;0.50;;;;;;;11.97;100.00;99643.38;105318;1264;62130;-45
2023/06/03 02:38:13;;;;;;;0.70;0.50;;;;;;;11.89;100.00;99650.10;105432;1254;60533;-47
2023/06/03 02:40:42;;;;;;;2.00;0.50;;;;;;;11.76;100.00;99660.91;105479;1254;72987;-45
2023/06/03 02:43:09;;;;;;;3.10;0.30;;;;;;;11.64;100.00;99658.80;105352;1261;68666;-45
2023/06/03 02:45:37;;;;;;;1.00;0.30;;;;;;;11.50;100.00;99648.83;105174;1260;72526;-45
2023/06/03 02:48:04;;;;;;;0.60;0.30;;;;;;;11.36;100.00;99643.28;105327;1259;61575;-43
2023/06/03 02:50:32;;;;;;;0.50;0.40;;;;;;;11.24;100.00;99652.36;109049;1254;58973;-47
2023/06/03 02:53:00;;;;;;;0.40;0.20;;;;;;;11.14;100.00;99664.36;106903;1256;73678;-45
2023/06/03 02:55:27;;;;;;;1.00;0.50;;;;;;;11.14;100.00;99687.89;109100;1253;68232;-47
2023/06/03 02:57:55;;;;;;;0.50;0.40;;;;;;;11.12;100.00;99689.81;108964;1256;71115;-47
2023/06/03 03:00:22;;;;;;;0.40;0.40;;;;;;;11.09;100.00;99697.53;109044;1254;59580;-45
2023/06/03 03:02:52;;;;;;;0.60;0.40;;;;;;;11.04;100.00;99705.66;109114;1253;59901;-45
2023/06/03 03:05:20;;;;;;;0.80;0.60;;;;;;;10.98;100.00;99702.20;109091;1254;73767;-45
2023/06/03 03:07:47;;;;;;;0.60;0.40;;;;;;;10.93;100.00;99704.05;109028;1254;66286;-45
2023/06/03 03:10:15;;;;;;;1.20;0.60;;;;;;;10.93;100.00;99715.57;107972;1254;71875;-47
2023/06/03 03:12:42;;;;;;;1.80;0.50;;;;;;;10.91;100.00;99721.58;108826;1254;62096;-47
2023/06/03 03:15:10;;;;;;;1.70;0.50;;;;;;;10.84;100.00;99721.55;109007;1254;61455;-44
2023/06/03 03:17:38;;;;;;;1.70;0.90;;;;;;;10.79;100.00;99726.50;109083;1254;74062;-44
2023/06/03 03:20:06;;;;;;;4.90;0.90;;;;;;;10.75;100.00;99725.09;108926;1254;67179;-44
2023/06/03 03:22:34;;;;;;;1.90;0.60;;;;;;;10.72;100.00;99729.20;108992;1254;72721;-44
2023/06/03 03:25:01;;;;;;;6.90;0.70;;;;;;;10.66;100.00;99737.90;108857;1254;62049;-45
2023/06/03 03:27:29;;;;;;;2.40;0.60;;;;;;;10.61;100.00;99742.30;108850;1254;59841;-45
2023/06/03 03:29:56;;;;;;;1.10;0.60;;;;;;;10.59;100.00;99743.96;106910;1254;72805;-46
2023/06/03 03:32:24;;;;;;;1.90;0.80;;;;;;;10.59;100.00;99745.23;105172;1262;66811;-46
2023/06/03 03:35:15;;;;;;;0.60;0.60;;;;;;;10.58;100.00;99749.23;105339;1260;71733;-46
2023/06/03 03:37:44;;;;;;;4.30;0.60;;;;;;;10.58;100.00;99751.38;105534;1259;60467;-45
2023/06/03 03:40:19;;;;;;;1.60;0.70;;;;;;;10.61;100.00;99751.25;105268;1255;59990;-47
2023/06/03 03:42:49;;;;;;;0.70;0.70;;;;;;;10.63;100.00;99747.59;105647;1256;73680;-46
2023/06/03 03:45:19;;;;;;;0.90;0.80;;;;;;;10.60;100.00;99753.96;105969;1254;67972;-45
2023/06/03 03:47:50;;;;;;;1.40;0.80;;;;;;;10.58;100.00;99753.73;105269;1256;72620;-46
2023/06/03 03:50:41;;;;;;;0.80;0.70;;;;;;;10.55;100.00;99754.23;105621;1257;60526;-44
2023/06/03 03:53:18;;;;;;;2.10;0.90;;;;;;;10.50;100.00;99759.31;105782;1254;60299;-45
2023/06/03 03:55:47;;;;;;;2.30;0.70;;;;;;;10.43;100.00;99760.17;106292;1254;74262;-46
2023/06/03 03:58:23;;;;;;;2.00;0.90;;;;;;;10.37;100.00;99762.64;105945;1257;66386;-46
2023/06/03 04:00:52;;;;;;;5.30;0.90;;;;;;;10.29;100.00;99764.98;105661;1259;72530;-45
2023/06/03 04:03:20;;;;;;;1.20;0.80;;;;;;;10.24;100.00;99769.52;105576;1259;61229;-46
2023/06/03 04:05:48;;;;;;;0.80;0.80;;;;;;;10.22;100.00;99770.14;105233;1262;60450;-45
2023/06/03 04:08:36;;;;;;;3.00;0.70;;;;;;;10.21;100.00;99780.77;105139;1254;73652;-46
2023/06/03 04:11:04;;;;;;;4.80;0.70;;;;;;;10.17;100.00;99781.67;105447;1257;66630;-46
2023/06/03 04:13:35;;;;;;;2.20;0.70;;;;;;;10.12;100.00;99783.34;105251;1254;72882;-46
2023/06/03 04:16:07;;;;;;;1.50;0.60;;;;;;;10.07;100.00;99787.69;105199;1254;61491;-46
2023/06/03 04:18:37;;;;;;;1.70;0.70;;;;;;;10.04;100.00;99788.73;105484;1257;62151;-46
2023/06/03 04:21:05;;;;;;;1.00;0.60;;;;;;;10.02;100.00;99793.64;106021;1254;73456;-47
2023/06/03 04:23:33;;;;;;;0.90;0.60;;;;;;;10.00;100.00;99802.70;105608;1256;67221;-46
2023/06/03 04:26:03;;;;;;;0.90;0.50;;;;;;;10.00;100.00;99805.75;105060;1254;72144;-46
2023/06/03 04:28:31;;;;;;;4.30;0.70;;;;;;;10.04;100.00;99818.31;105188;1254;61601;-47
2023/06/03 04:33:39;;;;;;;2.80;0.70;;;;;;;10.13;100.00;99824.68;102201;1295;600695;-46
2023/06/03 04:36:08;;;;;;;1.20;0.50;;;;;;;10.15;100.00;99830.50;104410;1272;59362;-47
2023/06/03 04:38:35;;;;;;;0.80;0.50;;;;;;;10.17;100.00;99832.95;104466;1267;59956;-47
2023/06/03 04:41:02;;;;;;;0.90;0.90;;;;;;;10.14;100.00;99836.48;104405;1272;70494;-46
2023/06/03 04:43:30;;;;;;;3.50;0.30;;;;;;;10.11;100.00;99842.92;104349;1274;67939;-47
2023/06/03 04:46:00;;;;;;;1.90;0.50;;;;;;;10.06;100.00;99850.66;104408;1276;72540;-47
2023/06/03 04:48:30;;;;;;;0.40;0.40;;;;;;;10.00;100.00;99852.55;104546;1269;190294;-47
2023/06/03 04:51:00;;;;;;;1.20;0.40;;;;;;;9.96;100.00;99862.55;104513;1269;60495;-48
2023/06/03 04:53:28;;;;;;;0.40;0.30;;;;;;;9.95;100.00;99875.69;104636;1270;70319;-48
2023/06/03 04:55:56;;;;;;;0.80;0.80;;;;;;;9.92;100.00;99877.98;104661;1267;67937;-48
2023/06/03 04:58:24;;;;;;;0.30;0.30;;;;;;;9.89;100.00;99885.09;104539;1269;71926;-46
2023/06/03 05:00:51;;;;;;;0.60;0.20;;;;;;;9.89;100.00;99882.58;104327;1280;59634;-48
2023/06/03 05:03:19;;;;;;;0.80;0.30;;;;;;;9.90;100.00;99884.90;104288;1264;59872;-46
2023/06/03 05:05:46;;;;;;;0.40;0.30;;;;;;;9.92;100.00;99892.14;104460;1273;72807;-45
2023/06/03 05:08:18;;;;;;;1.70;0.20;;;;;;;9.96;100.00;99895.75;105318;1264;68178;-45
2023/06/03 05:10:46;;;;;;;0.20;0.20;;;;;;;9.94;100.00;99900.67;104776;1268;72723;-44
2023/06/03 05:13:13;;;;;;;0.20;0.20;;;;;;;9.91;100.00;99909.23;104325;1270;59723;-45
2023/06/03 05:15:41;;;;;;;0.40;0.30;;;;;;;9.92;100.00;99916.71;104578;1267;59973;-45
2023/06/03 05:18:09;;;;;;;3.80;0.20;;;;;;;9.92;100.00;99920.30;104771;1264;71026;-44
2023/06/03 05:20:37;;;;;;;0.40;0.20;;;;;;;9.91;100.00;99931.45;104668;1269;67572;-45
2023/06/03 05:23:04;;;;;;;1.10;0.20;;;;;;;9.87;100.00;99930.55;105092;1264;72445;-46
2023/06/03 05:25:31;;;;;;;6.80;0.30;;;;;;;9.86;100.00;99934.50;104615;1269;61622;-45
2023/06/03 05:27:59;;;;;;;7.10;0.30;;;;;;;9.87;100.00;99941.13;104688;1270;59559;-45
2023/06/03 05:30:32;;;;;;;1.80;0.10;;;;;;;9.87;100.00;99940.59;104894;1270;71663;-45
2023/06/03 05:32:59;;;;;;;0.20;0.20;;;;;;;9.87;100.00;99945.61;104829;1269;67649;-44
2023/06/03 05:35:28;;;;;;;1.80;0.20;;;;;;;9.90;100.00;99946.20;104854;1264;72512;-46
2023/06/03 05:37:55;;;;;;;0.10;0.10;;;;;;;9.93;100.00;99947.71;105524;1270;60701;-46
2023/06/03 05:40:23;;;;;;;0.20;0.10;;;;;;;9.93;100.00;99953.05;104423;1267;60005;-45
2023/06/03 05:42:51;;;;;;;0.20;0.20;;;;;;;9.91;100.00;99952.05;104570;1264;73197;-44
2023/06/03 05:45:19;;;;;;;0.40;0.20;;;;;;;9.90;100.00;99959.27;108439;1263;68181;-46
2023/06/03 05:47:46;;;;;;;0.50;0.10;;;;;;;9.91;100.00;99962.10;105212;1264;71611;-43
2023/06/03 05:50:14;;;;;;;0.30;0.20;;;;;;;9.98;100.00;99970.42;108353;1264;61580;-45
2023/06/03 05:52:42;;;;;;;1.90;0.20;;;;;;;10.08;100.00;99977.32;108383;1264;60004;-44
2023/06/03 05:55:10;;;;;;;0.20;0.20;;;;;;;10.16;100.00;99981.48;108387;1264;71979;-45
2023/06/03 05:57:39;;;;;;;0.70;0.20;;;;;;;10.24;100.00;99973.98;108256;1267;66651;-45
2023/06/03 06:00:07;;;;;;;3.40;0.20;;;;;;;10.31;100.00;99984.45;108307;1263;72396;-45
2023/06/03 06:02:40;;;;;;;0.30;0.20;;;;;;;10.39;100.00;99990.20;104233;1270;59912;-45
2023/06/03 06:05:08;;;;;;;0.90;0.20;;;;;;;10.46;100.00;99990.79;105525;1271;59618;-45
2023/06/03 06:07:36;;;;;;;0.20;0.10;;;;;;;10.53;100.00;99995.28;104703;1264;74474;-44
2023/06/03 06:10:04;;;;;;;4.00;0.20;;;;;;;10.60;100.00;99999.10;104509;1267;66788;-43
2023/06/03 06:12:31;;;;;;;0.20;0.10;;;;;;;10.67;100.00;99999.90;104901;1270;74047;-45
2023/06/03 06:14:59;;;;;;;0.50;0.20;;;;;;;10.76;100.00;100005.59;105016;1261;59752;-44
2023/06/03 06:17:27;;;;;;;0.50;0.20;;;;;;;10.83;100.00;100011.52;106223;1258;62202;-44
2023/06/03 06:19:55;;;;;;;0.30;0.10;;;;;;;10.85;100.00;100007.14;108863;1257;72825;-45
2023/06/03 06:22:22;;;;;;;0.30;0.10;;;;;;;10.86;100.00;100006.57;105294;1257;67435;-46
2023/06/03 06:24:50;;;;;;;0.40;0.20;;;;;;;10.88;100.00;100006.98;105028;1261;72176;-44
2023/06/03 06:27:17;;;;;;;0.90;0.10;;;;;;;10.96;100.00;100011.30;105604;1263;59963;-45
2023/06/03 06:29:45;;;;;;;0.90;0.20;;;;;;;11.04;100.00;100020.28;105206;1257;59551;-44
2023/06/03 06:32:17;;;;;;;1.30;0.20;;;;;;;11.08;100.00;100015.59;105090;1263;71950;-47
2023/06/03 06:34:44;;;;;;;0.30;0.20;;;;;;;11.11;100.00;100029.32;104891;1264;65875;-47
2023/06/03 06:37:12;;;;;;;0.90;0.20;;;;;;;11.12;100.00;100028.55;105487;1257;71616;-44
2023/06/03 06:39:51;;;;;;;0.40;0.10;;;;;;;11.15;100.00;100033.62;104965;1257;59747;-43
2023/06/03 06:42:31;;;;;;;1.00;0.10;;;;;;;11.20;100.00;100041.26;105038;1261;61085;-44
2023/06/03 06:45:30;;;;;;;2.70;0.20;;;;;;;11.26;100.00;100050.15;105088;1263;73436;-46
2023/06/03 06:48:06;;;;;;;2.00;0.20;;;;;;;11.30;100.00;100057.85;105322;1258;66402;-44
2023/06/03 06:50:56;;;;;;;0.30;0.20;;;;;;;11.35;100.00;100050.60;105956;1264;72668;-47
2023/06/03 06:53:28;;;;;;;3.30;0.20;;;;;;;11.42;100.00;100050.81;105995;1264;60532;-46
2023/06/03 06:56:04;;;;;;;0.20;0.20;;;;;;;11.51;100.00;100059.59;105791;1257;59711;-45
2023/06/03 06:58:39;;;;;;;0.30;0.30;;;;;;;11.61;100.00;100055.67;104953;1257;71963;-44
2023/06/03 07:01:10;;;;;;;1.10;0.30;;;;;;;11.68;100.00;100059.09;105681;1257;66581;-44
2023/06/03 07:03:42;;;;;;;0.60;0.30;;;;;;;11.76;100.00;100061.45;105780;1257;73040;-46
2023/06/03 07:06:10;;;;;;;0.30;0.10;;;;;;;11.82;100.00;100062.80;105126;1257;60002;-46
2023/06/03 07:08:38;;;;;;;0.60;0.10;;;;;;;11.88;100.00;100075.23;105316;1256;59888;-44
2023/06/03 07:11:06;;;;;;;0.10;0.10;;;;;;;11.94;100.00;100072.27;104948;1263;72832;-46
2023/06/03 07:13:50;;;;;;;2.00;0.10;;;;;;;12.04;100.00;100076.30;104534;1263;67467;-47
2023/06/03 07:16:19;;;;;;;2.50;0.10;;;;;;;12.10;100.00;100070.90;106877;1259;73191;-43
2023/06/03 07:18:50;;;;;;;0.20;0.10;;;;;;;12.17;100.00;100069.70;105469;1261;59879;-45
2023/06/03 07:21:23;;;;;;;0.30;0.20;;;;;;;12.25;100.00;100074.16;105133;1262;60332;-47
2023/06/03 07:23:51;;;;;;;2.70;0.20;;;;;;;12.27;100.00;100080.90;105451;1257;71623;-44
2023/06/03 07:26:18;;;;;;;1.00;0.10;;;;;;;12.29;100.00;100080.77;105164;1258;65592;-44
2023/06/03 07:28:48;;;;;;;3.50;0.20;;;;;;;12.33;100.00;100078.96;105295;1257;72838;-45
2023/06/03 07:31:16;;;;;;;0.20;0.10;;;;;;;12.42;100.00;100076.54;105318;1263;60579;-45
2023/06/03 07:33:50;;;;;;;1.10;0.10;;;;;;;12.52;100.00;100084.47;105175;1263;60549;-45
2023/06/03 07:36:24;;;;;;;0.50;0.10;;;;;;;12.60;100.00;100088.73;104803;1258;71707;-44
2023/06/03 07:39:10;;;;;;;0.30;0.10;;;;;;;12.67;100.00;100093.05;104982;1263;68066;-44
2023/06/03 07:41:45;;;;;;;0.30;0.10;;;;;;;12.74;100.00;100095.05;104952;1257;71981;-44
2023/06/03 07:44:44;;;;;;;2.00;0.10;;;;;;;12.80;100.00;100105.88;104781;1261;60532;-43
2023/06/03 07:47:12;;;;;;;1.30;0.10;;;;;;;12.87;100.00;100110.91;105055;1260;59632;-46
2023/06/03 07:49:45;;;;;;;0.90;0.10;;;;;;;12.93;100.00;100110.98;104981;1262;73170;-44
2023/06/03 07:52:20;;;;;;;1.80;0.10;;;;;;;12.96;100.00;100116.02;106113;1257;67944;-44
2023/06/03 07:54:48;;;;;;;0.90;0.10;;;;;;;13.04;100.00;100119.20;105307;1260;73234;-44
2023/06/03 07:57:16;;;;;;;0.50;0.20;;;;;;;13.18;100.00;100120.99;105410;1257;59669;-43
2023/06/03 08:00:02;;;;;;;0.20;0.10;;;;;;;13.32;100.00;100136.30;105210;1262;59810;-45
2023/06/03 08:02:38;;;;;;;;;;;;;;;13.42;100.00;100141.57;104855;1264;72563;-45
2023/06/03 08:05:06;;;;;;;0.40;0.10;;;;;;;13.42;100.00;100138.65;105203;1257;70104;-44
2023/06/03 08:07:34;;;;;;;0.30;0.10;;;;;;;13.42;100.00;100143.16;105468;1260;71346;-46
2023/06/03 08:10:03;;;;;;;1.40;0.10;;;;;;;13.45;100.00;100145.31;105327;1263;59739;-44
2023/06/03 08:12:34;;;;;;;1.90;0.20;;;;;;;13.46;100.00;100142.79;105540;1263;59712;-45
2023/06/03 08:15:01;;;;;;;1.60;0.10;;;;;;;13.50;100.00;100152.12;105296;1263;72877;-45
2023/06/03 08:17:49;;;;;;;0.70;0.10;;;;;;;13.54;100.00;100151.18;105189;1263;66531;-45
2023/06/03 08:20:22;;;;;;;0.10;0.10;;;;;;;13.62;100.00;100149.80;105214;1263;71956;-44
2023/06/03 08:22:50;;;;;;;0.20;0.10;;;;;;;13.69;100.00;100159.02;105362;1258;61077;-45
2023/06/03 08:25:17;;;;;;;0.30;0.10;;;;;;;13.68;100.00;100153.86;105305;1257;59926;-45
2023/06/03 08:27:47;;;;;;;0.10;0.10;;;;;;;13.68;100.00;100156.94;105406;1258;71672;-45
2023/06/03 08:30:14;;;;;;;3.60;0.20;;;;;;;13.70;100.00;100155.69;105146;1258;66536;-45
2023/06/03 08:32:43;;;;;;;0.30;0.10;;;;;;;13.76;100.00;100154.67;105411;1258;73273;-46
2023/06/03 08:35:11;;;;;;;0.80;0.20;;;;;;;13.82;100.00;100155.40;105180;1262;59730;-45
2023/06/03 08:37:38;;;;;;;0.50;0.10;;;;;;;13.91;100.00;100163.73;105173;1257;59737;-45
2023/06/03 08:40:25;;;;;;;0.40;0.10;;;;;;;13.99;100.00;100155.52;105005;1257;75356;-47
2023/06/03 08:42:57;;;;;;;1.60;0.10;;;;;;;14.03;100.00;100155.48;104818;1256;68566;-47
2023/06/03 08:45:25;;;;;;;3.80;0.10;;;;;;;14.11;100.00;100161.92;108885;1257;71456;-46
2023/06/03 08:48:23;;;;;;;2.90;0.10;;;;;;;14.19;100.00;100151.69;107299;1260;60482;-46
2023/06/03 08:50:50;;;;;;;2.20;0.10;;;;;;;14.29;100.00;100157.42;104935;1259;60408;-46
2023/06/03 08:53:17;;;;;;;0.90;0.10;;;;;;;14.38;100.00;100154.94;105007;1258;73057;-45
2023/06/03 08:55:45;;;;;;;0.10;0.10;;;;;;;14.43;100.00;100149.46;104855;1257;66652;-45
2023/06/03 08:58:16;;;;;;;0.50;0.10;;;;;;;14.49;100.00;100151.09;104872;1257;72439;-46
2023/06/03 09:00:47;;;;;;;3.50;0.10;;;;;;;14.60;100.00;100159.65;108872;1260;59295;-47
2023/06/03 09:03:15;;;;;;;0.70;0.10;;;;;;;14.65;100.00;100167.84;108814;1257;58845;-47
2023/06/03 09:05:42;;;;;;;0.30;0.10;;;;;;;14.62;100.00;100171.29;108829;1256;73012;-46
2023/06/03 09:08:11;;;;;;;1.60;0.10;;;;;;;14.58;100.00;100172.00;108840;1257;67471;-46
2023/06/03 09:10:39;;;;;;;1.60;0.10;;;;;;;14.60;100.00;100171.03;108892;1257;71907;-45
2023/06/03 09:13:06;;;;;;;2.40;0.10;;;;;;;14.63;100.00;100168.30;108009;1260;60606;-46
2023/06/03 09:15:33;;;;;;;0.10;0.10;;;;;;;14.67;100.00;100167.19;104641;1258;60499;-46
2023/06/03 09:18:01;;;;;;;1.70;0.10;;;;;;;14.73;100.00;100166.26;104723;1263;74492;-46
2023/06/03 09:20:28;;;;;;;0.20;0.10;;;;;;;14.83;100.00;100167.52;105313;1262;69332;-45
2023/06/03 09:22:56;;;;;;;0.20;0.10;;;;;;;14.92;100.00;100165.49;104965;1260;73233;-45
2023/06/03 09:25:23;;;;;;;2.00;0.10;;;;;;;15.02;100.00;100177.38;105183;1264;62410;-44
2023/06/03 09:27:50;;;;;;;0.40;0.20;;;;;;;15.13;100.00;100180.87;105300;1262;60443;-42
2023/06/03 09:30:18;;;;;;;0.10;0.10;;;;;;;15.25;100.00;100179.61;105340;1263;74794;-47
2023/06/03 09:32:46;;;;;;;0.20;0.10;;;;;;;15.34;100.00;100176.54;105448;1259;69853;-46
2023/06/03 09:35:13;;;;;;;0.20;0.10;;;;;;;15.38;100.00;100189.78;105277;1257;71966;-44
2023/06/03 09:37:56;;;;;;;0.30;0.10;;;;;;;15.40;100.00;100181.22;105322;1258;60584;-45
2023/06/03 09:40:29;;;;;;;2.20;0.10;;;;;;;15.43;100.00;100194.59;105337;1262;60546;-46
2023/06/03 09:42:57;;;;;;;1.40;0.10;;;;;;;15.49;100.00;100191.31;105388;1257;73888;-44
2023/06/03 09:45:31;;;;;;;3.30;0.10;;;;;;;15.55;100.00;100192.05;105341;1262;69856;-45
2023/06/03 09:47:59;;;;;;;1.10;0.10;;;;;;;15.61;100.00;100188.46;105432;1257;73546;-45
2023/06/03 09:50:27;;;;;;;0.20;0.10;;;;;;;15.62;100.00;100195.63;105126;1258;60459;-45
2023/06/03 09:52:55;;;;;;;1.10;0.10;;;;;;;15.62;100.00;100197.98;105715;1256;60536;-45
2023/06/03 09:55:29;;;;;;;0.30;0.10;;;;;;;15.63;100.00;100202.23;105344;1263;74142;-45
2023/06/03 09:58:04;;;;;;;1.90;0.10;;;;;;;15.64;100.00;100201.84;105429;1258;67000;-47
2023/06/03 10:00:33;;;;;;;0.70;0.00;;;;;;;15.63;100.00;100200.06;105337;1263;72904;-46
2023/06/03 10:03:06;;;;;;;0.30;0.10;;;;;;;15.66;100.00;100193.20;105244;1264;60447;-45
2023/06/03 10:05:34;;;;;;;0.20;0.10;;;;;;;15.70;100.00;100191.86;105427;1263;60381;-46
2023/06/03 10:08:05;;;;;;;0.30;0.10;;;;;;;15.76;100.00;100194.54;105636;1257;73567;-44
2023/06/03 10:10:33;;;;;;;0.10;0.10;;;;;;;15.85;100.00;100193.80;105054;1263;67929;-45
2023/06/03 10:13:21;;;;;;;1.20;0.10;;;;;;;15.86;100.00;100198.92;104971;1257;72389;-48
2023/06/03 10:15:49;;;;;;;0.10;0.10;;;;;;;15.88;100.00;100198.14;105426;1258;60466;-46
2023/06/03 10:18:17;;;;;;;1.30;0.10;;;;;;;15.86;100.00;100194.98;105220;1257;60613;-46
2023/06/03 10:20:44;;;;;;;0.10;0.10;;;;;;;15.90;100.00;100193.29;105055;1258;72440;-45
2023/06/03 10:23:11;;;;;;;0.20;0.10;;;;;;;15.96;100.00;100197.79;105321;1257;66799;-46
2023/06/03 10:25:47;;;;;;;4.00;0.20;;;;;;;16.01;100.00;100192.76;105340;1258;73021;-45
2023/06/03 10:28:14;;;;;;;0.20;0.10;;;;;;;16.06;100.00;100195.52;105511;1257;60438;-45
2023/06/03 10:30:42;;;;;;;0.40;0.10;;;;;;;16.14;100.00;100193.79;105271;1262;60591;-45
2023/06/03 10:33:10;;;;;;;1.40;0.10;;;;;;;16.18;100.00;100191.09;105285;1257;72578;-46
2023/06/03 10:35:38;;;;;;;0.30;0.10;;;;;;;16.21;100.00;100209.38;105421;1256;67691;-46
2023/06/03 10:38:06;;;;;;;1.50;0.10;;;;;;;16.22;100.00;100211.36;105426;1260;71270;-47
2023/06/03 10:40:34;;;;;;;0.60;0.10;;;;;;;16.21;100.00;100207.63;105379;1263;60580;-45
2023/06/03 10:43:03;;;;;;;0.80;0.10;;;;;;;16.18;100.00;100209.02;105394;1262;60595;-45
2023/06/03 10:45:31;;;;;;;0.60;0.20;;;;;;;16.17;100.00;100208.00;105214;1259;74078;-46
2023/06/03 10:48:00;;;;;;;0.20;0.10;;;;;;;16.16;100.00;100205.95;105231;1263;66630;-44
2023/06/03 10:50:47;;;;;;;2.30;0.10;;;;;;;16.17;100.00;100201.66;105199;1261;72866;-45
2023/06/03 10:53:23;;;;;;;0.20;0.00;;;;;;;16.27;100.00;100211.36;105279;1260;60472;-43
2023/06/03 10:56:09;;;;;;;1.70;0.10;;;;;;;16.36;100.00;100212.81;105193;1257;61193;-44
2023/06/03 10:58:37;;;;;;;0.00;0.00;;;;;;;16.38;100.00;100215.56;105246;1257;72929;-46
2023/06/03 11:01:04;;;;;;;3.30;0.10;;;;;;;16.39;100.00;100208.08;105096;1257;66634;-45
2023/06/03 11:03:33;;;;;;;4.50;0.10;;;;;;;16.42;100.00;100209.15;105272;1260;74107;-44
2023/06/03 11:06:16;;;;;;;0.40;0.10;;;;;;;16.46;100.00;100206.30;106261;1263;60514;-45
2023/06/03 11:09:03;;;;;;;1.60;0.10;;;;;;;16.50;100.00;100209.55;105249;1257;60518;-46
2023/06/03 11:11:40;;;;;;;1.30;0.10;;;;;;;16.50;100.00;100213.88;105204;1262;72448;-47
2023/06/03 11:14:09;;;;;;;2.50;0.10;;;;;;;16.48;100.00;100201.66;105188;1263;70020;-48
2023/06/03 11:16:55;;;;;;;0.20;0.10;;;;;;;16.51;100.00;100204.58;106024;1257;72583;-43
2023/06/03 11:19:33;;;;;;;0.10;0.00;;;;;;;16.57;100.00;100198.90;105263;1260;60630;-46
2023/06/03 11:22:01;;;;;;;1.30;0.10;;;;;;;16.61;100.00;100202.62;105425;1264;60478;-46
2023/06/03 11:24:48;;;;;;;0.30;0.10;;;;;;;16.65;100.00;100203.31;105237;1257;72647;-46
2023/06/03 11:27:16;;;;;;;0.20;0.10;;;;;;;16.72;100.00;100206.30;105345;1263;67285;-43
2023/06/03 11:29:44;;;;;;;0.40;0.10;;;;;;;16.78;100.00;100207.48;105205;1257;72609;-43
2023/06/03 11:32:16;;;;;;;1.40;0.10;;;;;;;16.82;100.00;100210.51;108801;1256;58894;-47